createdAt,value
2017-12-29T00:01:07.393Z,57.20
2017-12-29T00:03:36.231Z,57.20
2017-12-29T00:06:04.648Z,57.20
2017-12-29T00:08:32.773Z,57.20
2017-12-29T00:11:00.938Z,57.10
2017-12-29T00:13:28.931Z,57.10
2017-12-29T00:15:57.379Z,57.20
2017-12-29T00:18:25.657Z,57.20
2017-12-29T00:20:53.874Z,57.20
2017-12-29T00:23:22.357Z,57.20
2017-12-29T00:25:50.629Z,57.20
2017-12-29T00:28:18.983Z,57.30
2017-12-29T00:30:47.237Z,57.30
2017-12-29T00:33:15.535Z,57.20
2017-12-29T00:35:43.842Z,57.20
2017-12-29T00:38:12.139Z,57.20
2017-12-29T00:40:40.475Z,57.20
2017-12-29T00:43:08.758Z,57.90
2017-12-29T00:45:36.917Z,57.30
2017-12-29T00:48:05.216Z,57.40
2017-12-29T00:50:33.687Z,57.50
2017-12-29T00:53:01.911Z,57.40
2017-12-29T00:55:30.894Z,57.40
2017-12-29T00:57:59.238Z,57.30
2017-12-29T01:00:27.556Z,57.40
2017-12-29T01:02:55.846Z,57.30
2017-12-29T01:05:24.917Z,57.40
2017-12-29T01:07:53.221Z,57.40
2017-12-29T01:10:21.969Z,57.40
2017-12-29T01:12:49.939Z,57.40
2017-12-29T01:15:17.907Z,57.40
2017-12-29T01:17:45.909Z,57.20
2017-12-29T01:20:14.658Z,57.20
2017-12-29T01:22:42.635Z,57.30
2017-12-29T01:25:10.594Z,57.20
2017-12-29T01:27:38.570Z,57.10
2017-12-29T01:30:06.561Z,56.90
2017-12-29T01:32:34.543Z,56.70
2017-12-29T01:35:03.294Z,56.20
2017-12-29T01:37:31.253Z,56.20
2017-12-29T01:39:59.219Z,55.90
2017-12-29T01:42:27.260Z,55.70
2017-12-29T01:44:55.231Z,55.50
2017-12-29T01:47:23.237Z,55.20
2017-12-29T01:49:51.226Z,55.00
2017-12-29T01:52:19.226Z,54.70
2017-12-29T01:54:47.986Z,54.20
2017-12-29T01:57:16.019Z,54.20
2017-12-29T01:59:43.999Z,53.90
2017-12-29T02:02:12.007Z,53.70
2017-12-29T02:04:40.070Z,53.40
2017-12-29T02:07:08.051Z,53.20
2017-12-29T02:09:36.821Z,53.00
2017-12-29T02:12:04.806Z,52.70
2017-12-29T02:14:32.797Z,52.60
2017-12-29T02:17:01.530Z,52.50
2017-12-29T02:19:29.510Z,52.50
2017-12-29T02:21:58.605Z,52.40
2017-12-29T02:24:26.621Z,52.30
2017-12-29T02:26:55.373Z,51.90
2017-12-29T02:29:23.343Z,52.00
2017-12-29T02:31:51.334Z,51.80
2017-12-29T02:34:20.065Z,51.50
2017-12-29T02:36:48.057Z,51.50
2017-12-29T02:39:16.288Z,51.40
2017-12-29T02:41:44.299Z,51.20
2017-12-29T02:44:12.283Z,51.10
2017-12-29T02:46:40.342Z,51.00
2017-12-29T02:49:08.335Z,50.90
2017-12-29T02:51:36.335Z,50.70
2017-12-29T02:54:04.575Z,50.60
2017-12-29T02:56:32.933Z,50.40
2017-12-29T02:59:01.028Z,50.30
2017-12-29T03:01:29.006Z,50.10
2017-12-29T03:03:57.085Z,50.00
2017-12-29T03:06:26.032Z,49.60
2017-12-29T03:08:53.984Z,49.60
2017-12-29T03:11:21.963Z,49.40
2017-12-29T03:13:49.985Z,49.10
2017-12-29T03:16:18.740Z,48.80
2017-12-29T03:18:46.711Z,48.80
2017-12-29T03:21:15.578Z,48.50
2017-12-29T03:23:43.545Z,48.50
2017-12-29T03:26:11.578Z,48.30
2017-12-29T03:28:40.344Z,48.10
2017-12-29T03:31:08.371Z,48.20
2017-12-29T03:33:36.399Z,48.00
2017-12-29T03:36:04.367Z,47.90
2017-12-29T03:38:32.381Z,47.80
2017-12-29T03:41:00.351Z,47.80
2017-12-29T03:43:28.363Z,47.60
2017-12-29T03:45:56.345Z,47.60
2017-12-29T03:48:24.643Z,47.50
2017-12-29T03:50:53.401Z,47.30
2017-12-29T03:53:21.626Z,47.30
2017-12-29T03:55:49.627Z,47.20
2017-12-29T03:58:18.437Z,47.20
2017-12-29T04:00:46.465Z,47.10
2017-12-29T04:03:14.446Z,47.00
2017-12-29T04:05:42.469Z,47.00
2017-12-29T04:08:11.325Z,46.90
2017-12-29T04:10:39.299Z,46.90
2017-12-29T04:13:07.336Z,46.80
2017-12-29T04:15:35.347Z,46.70
2017-12-29T04:18:03.368Z,46.60
2017-12-29T04:20:31.351Z,46.60
2017-12-29T04:22:59.334Z,46.50
2017-12-29T04:25:27.314Z,46.50
2017-12-29T04:27:55.315Z,46.50
2017-12-29T04:30:24.062Z,46.30
2017-12-29T04:32:52.068Z,46.30
2017-12-29T04:35:20.402Z,46.20
2017-12-29T04:37:48.381Z,46.10
2017-12-29T04:40:16.258Z,46.10
2017-12-29T04:42:44.253Z,46.60
2017-12-29T04:45:12.501Z,45.90
2017-12-29T04:47:40.498Z,45.80
2017-12-29T04:50:09.272Z,45.90
2017-12-29T04:52:37.313Z,45.80
2017-12-29T04:55:05.280Z,46.20
2017-12-29T04:57:33.486Z,45.60
2017-12-29T05:00:01.705Z,45.50
2017-12-29T05:02:29.729Z,45.40
2017-12-29T05:04:57.977Z,45.10
2017-12-29T05:07:26.155Z,45.10
2017-12-29T05:09:54.180Z,44.90
2017-12-29T05:12:22.958Z,44.50
2017-12-29T05:14:51.931Z,44.40
2017-12-29T05:17:19.935Z,44.40
2017-12-29T05:19:48.724Z,44.10
2017-12-29T05:22:17.474Z,44.00
2017-12-29T05:24:45.472Z,44.00
2017-12-29T05:27:14.210Z,43.80
2017-12-29T05:29:42.178Z,43.80
2017-12-29T05:32:10.205Z,43.80
2017-12-29T05:34:38.945Z,43.60
2017-12-29T05:37:07.143Z,43.60
2017-12-29T05:39:35.346Z,43.60
2017-12-29T05:42:04.098Z,43.40
2017-12-29T05:44:32.081Z,43.40
2017-12-29T05:47:00.083Z,43.40
2017-12-29T05:49:28.058Z,43.30
2017-12-29T05:51:56.053Z,43.30
2017-12-29T05:54:24.015Z,43.20
2017-12-29T05:56:52.007Z,43.20
2017-12-29T05:59:19.967Z,43.10
2017-12-29T06:01:47.949Z,43.10
2017-12-29T06:04:15.971Z,43.10
2017-12-29T06:06:43.951Z,43.10
2017-12-29T06:09:11.922Z,43.00
2017-12-29T06:11:39.863Z,43.10
2017-12-29T06:14:08.613Z,43.20
2017-12-29T06:16:36.629Z,43.00
2017-12-29T06:19:05.586Z,43.10
2017-12-29T06:21:33.611Z,43.10
2017-12-29T06:24:01.598Z,43.00
2017-12-29T06:26:29.567Z,43.00
2017-12-29T06:28:57.754Z,42.90
2017-12-29T06:31:25.978Z,42.90
2017-12-29T06:33:54.942Z,42.90
2017-12-29T06:36:22.911Z,42.90
2017-12-29T06:38:50.882Z,42.90
2017-12-29T06:41:18.879Z,42.90
2017-12-29T06:43:47.652Z,42.90
2017-12-29T06:46:16.642Z,42.90
2017-12-29T06:48:44.641Z,43.00
2017-12-29T06:51:12.715Z,43.00
2017-12-29T06:53:40.695Z,43.00
2017-12-29T06:56:08.658Z,43.20
2017-12-29T06:58:36.633Z,43.30
2017-12-29T07:01:04.765Z,43.20
2017-12-29T07:03:32.988Z,43.40
2017-12-29T07:06:01.266Z,44.00
2017-12-29T07:08:29.702Z,43.50
2017-12-29T07:10:57.682Z,43.60
2017-12-29T07:13:26.437Z,43.70
2017-12-29T07:15:54.430Z,43.70
2017-12-29T07:18:22.414Z,43.70
2017-12-29T07:20:51.162Z,43.80
2017-12-29T07:23:19.179Z,43.80
2017-12-29T07:25:47.934Z,43.90
2017-12-29T07:28:15.926Z,43.90
2017-12-29T07:30:44.661Z,44.00
2017-12-29T07:33:12.655Z,44.00
2017-12-29T07:35:40.669Z,44.10
2017-12-29T07:38:08.654Z,44.10
2017-12-29T07:40:36.621Z,44.20
2017-12-29T07:43:04.607Z,44.30
2017-12-29T07:45:32.566Z,44.30
2017-12-29T07:48:00.602Z,44.30
2017-12-29T07:50:29.327Z,44.40
2017-12-29T07:52:57.313Z,44.40
2017-12-29T07:55:25.300Z,44.50
2017-12-29T07:57:53.294Z,44.50
2017-12-29T08:00:22.081Z,44.60
2017-12-29T08:02:50.816Z,44.50
2017-12-29T08:05:18.809Z,44.50
2017-12-29T08:07:46.774Z,44.50
2017-12-29T08:10:14.770Z,44.80
2017-12-29T08:12:42.794Z,44.90
2017-12-29T08:15:10.775Z,44.90
2017-12-29T08:17:38.767Z,45.00
2017-12-29T08:20:06.739Z,45.00
2017-12-29T08:22:34.729Z,45.10
2017-12-29T08:25:03.538Z,45.00
2017-12-29T08:27:31.585Z,45.00
2017-12-29T08:30:00.326Z,45.10
2017-12-29T08:32:28.353Z,45.00
2017-12-29T08:34:57.130Z,44.80
2017-12-29T08:37:25.929Z,44.50
2017-12-29T08:39:54.691Z,43.50
2017-12-29T08:42:22.693Z,43.50
2017-12-29T08:44:53.150Z,43.10
2017-12-29T08:47:21.947Z,43.10
2017-12-29T08:49:50.034Z,42.90
2017-12-29T08:52:18.043Z,42.70
2017-12-29T08:54:46.810Z,42.20
2017-12-29T08:57:14.790Z,42.20
2017-12-29T08:59:43.421Z,41.90
2017-12-29T09:02:11.388Z,41.60
2017-12-29T09:04:39.377Z,41.30
2017-12-29T09:07:07.386Z,41.10
2017-12-29T09:09:35.365Z,40.90
2017-12-29T09:12:04.671Z,40.40
2017-12-29T09:14:34.985Z,40.40
2017-12-29T09:17:02.958Z,40.20
2017-12-29T09:19:31.698Z,39.70
2017-12-29T09:21:59.722Z,39.70
2017-12-29T09:24:28.522Z,39.40
2017-12-29T09:26:57.277Z,39.20
2017-12-29T09:29:25.265Z,39.20
2017-12-29T09:31:54.042Z,38.90
2017-12-29T09:34:22.008Z,38.80
2017-12-29T09:36:50.016Z,38.60
2017-12-29T09:39:17.990Z,38.40
2017-12-29T09:41:45.958Z,38.20
2017-12-29T09:44:13.969Z,38.10
2017-12-29T09:46:41.971Z,38.00
2017-12-29T09:49:10.730Z,37.70
2017-12-29T09:51:38.729Z,37.60
2017-12-29T09:54:07.486Z,37.50
2017-12-29T09:56:35.529Z,37.40
2017-12-29T09:59:03.519Z,37.40
2017-12-29T10:01:31.502Z,37.30
2017-12-29T10:03:59.471Z,37.40
2017-12-29T10:06:27.434Z,36.80
2017-12-29T10:08:55.459Z,36.70
2017-12-29T10:11:23.446Z,36.50
2017-12-29T10:13:51.436Z,36.30
2017-12-29T10:16:19.462Z,36.20
2017-12-29T10:18:48.248Z,35.90
2017-12-29T10:21:17.030Z,35.60
2017-12-29T10:23:45.793Z,35.30
2017-12-29T10:26:13.770Z,35.30
2017-12-29T10:28:41.744Z,35.00
2017-12-29T10:31:10.498Z,34.80
2017-12-29T10:33:38.509Z,34.70
2017-12-29T10:36:07.267Z,34.20
2017-12-29T10:38:35.234Z,34.20
2017-12-29T10:41:03.227Z,34.10
2017-12-29T10:43:31.213Z,33.70
2017-12-29T10:45:59.966Z,33.40
2017-12-29T10:48:27.976Z,33.40
2017-12-29T10:50:56.725Z,33.00
2017-12-29T10:53:24.711Z,33.00
2017-12-29T10:55:52.687Z,33.00
2017-12-29T10:58:20.714Z,32.90
2017-12-29T11:00:48.751Z,32.50
2017-12-29T11:03:16.757Z,32.40
2017-12-29T11:05:44.718Z,32.30
2017-12-29T11:08:12.709Z,32.20
2017-12-29T11:10:40.700Z,31.90
2017-12-29T11:13:08.654Z,31.60
2017-12-29T11:15:36.936Z,31.60
2017-12-29T11:18:04.961Z,31.60
2017-12-29T11:20:32.909Z,31.50
2017-12-29T11:23:01.690Z,31.40
2017-12-29T11:25:30.445Z,31.10
2017-12-29T11:27:58.404Z,31.10
2017-12-29T11:30:26.378Z,31.10
2017-12-29T11:32:54.389Z,30.90
2017-12-29T11:35:23.155Z,30.60
2017-12-29T11:37:51.235Z,30.60
2017-12-29T11:40:19.222Z,30.60
2017-12-29T11:42:48.016Z,30.40
2017-12-29T11:45:16.778Z,30.40
2017-12-29T11:47:44.766Z,30.40
2017-12-29T11:50:13.516Z,30.20
2017-12-29T11:52:41.526Z,30.20
2017-12-29T11:55:10.285Z,30.80
2017-12-29T11:57:38.252Z,30.20
2017-12-29T12:00:06.274Z,30.10
2017-12-29T12:02:34.261Z,30.10
2017-12-29T12:05:02.266Z,30.00
2017-12-29T12:07:30.256Z,29.90
2017-12-29T12:09:58.998Z,29.90
2017-12-29T12:12:26.989Z,29.90
2017-12-29T12:14:55.005Z,29.90
2017-12-29T12:17:23.817Z,29.90
2017-12-29T12:19:51.847Z,29.90
2017-12-29T12:22:20.590Z,29.70
2017-12-29T12:24:48.589Z,29.70
2017-12-29T12:27:16.574Z,29.70
2017-12-29T12:29:45.334Z,29.50
2017-12-29T12:32:13.327Z,29.50
2017-12-29T12:34:42.058Z,29.60
2017-12-29T12:37:10.057Z,29.60
2017-12-29T12:39:38.046Z,29.50
2017-12-29T12:42:06.015Z,29.60
2017-12-29T12:44:34.000Z,29.60
2017-12-29T12:47:02.742Z,29.60
2017-12-29T12:49:30.719Z,29.60
2017-12-29T12:51:58.725Z,29.70
2017-12-29T12:54:27.497Z,29.70
2017-12-29T12:56:55.474Z,29.70
2017-12-29T12:59:23.445Z,29.70
2017-12-29T13:01:52.194Z,29.60
2017-12-29T13:04:20.161Z,29.60
2017-12-29T13:06:48.130Z,29.60
2017-12-29T13:09:16.149Z,29.70
2017-12-29T13:11:44.923Z,29.80
2017-12-29T13:14:13.709Z,29.90
2017-12-29T13:16:41.690Z,29.80
2017-12-29T13:19:10.451Z,29.90
2017-12-29T13:21:38.430Z,29.90
2017-12-29T13:24:06.521Z,29.90
2017-12-29T13:26:35.334Z,30.00
2017-12-29T13:29:03.337Z,30.00
2017-12-29T13:31:31.328Z,30.00
2017-12-29T13:33:59.307Z,29.90
2017-12-29T13:36:27.317Z,30.00
2017-12-29T13:38:55.433Z,30.00
2017-12-29T13:41:23.447Z,30.00
2017-12-29T13:43:52.213Z,30.10
2017-12-29T13:46:20.240Z,30.10
2017-12-29T13:48:48.236Z,30.20
2017-12-29T13:51:16.257Z,30.20
2017-12-29T13:53:44.266Z,30.20
2017-12-29T13:56:12.262Z,30.20
2017-12-29T13:58:40.266Z,30.40
2017-12-29T14:01:08.264Z,30.50
2017-12-29T14:03:36.305Z,30.50
2017-12-29T14:06:04.290Z,30.60
2017-12-29T14:08:32.276Z,30.70
2017-12-29T14:11:00.280Z,30.70
2017-12-29T14:13:28.265Z,30.60
2017-12-29T14:15:57.054Z,30.70
2017-12-29T14:18:25.781Z,30.70
2017-12-29T14:20:53.754Z,30.70
2017-12-29T14:23:21.720Z,30.70
2017-12-29T14:25:49.707Z,30.80
2017-12-29T14:28:17.758Z,30.80
2017-12-29T14:30:45.753Z,30.90
2017-12-29T14:33:13.731Z,30.90
2017-12-29T14:35:41.737Z,30.90
2017-12-29T14:38:10.511Z,31.20
2017-12-29T14:40:38.509Z,31.10
2017-12-29T14:43:06.498Z,31.20
2017-12-29T14:45:34.479Z,31.40
2017-12-29T14:48:02.486Z,31.50
2017-12-29T14:50:30.447Z,31.70
2017-12-29T14:52:58.446Z,31.80
2017-12-29T14:55:27.189Z,32.00
2017-12-29T14:57:55.207Z,32.00
2017-12-29T15:00:23.217Z,32.10
2017-12-29T15:02:51.201Z,32.20
2017-12-29T15:05:19.192Z,32.40
2017-12-29T15:07:47.167Z,32.50
2017-12-29T15:10:15.160Z,32.80
2017-12-29T15:12:43.215Z,32.90
2017-12-29T15:15:12.005Z,33.20
2017-12-29T15:17:40.747Z,33.40
2017-12-29T15:20:08.735Z,33.40
2017-12-29T15:22:36.716Z,33.50
2017-12-29T15:25:04.711Z,33.50
2017-12-29T15:27:33.459Z,33.60
2017-12-29T15:30:01.463Z,33.60
2017-12-29T15:32:30.258Z,33.70
2017-12-29T15:34:59.030Z,33.90
2017-12-29T15:37:27.799Z,34.20
2017-12-29T15:39:55.819Z,34.00
2017-12-29T15:42:23.794Z,34.10
2017-12-29T15:44:51.804Z,34.10
2017-12-29T15:47:19.817Z,34.10
2017-12-29T15:49:47.748Z,34.10
2017-12-29T15:52:15.775Z,34.00
2017-12-29T15:54:43.782Z,34.00
2017-12-29T15:57:11.774Z,33.90
2017-12-29T15:59:39.795Z,33.90
2017-12-29T16:02:09.702Z,33.90
2017-12-29T16:04:37.671Z,34.00
2017-12-29T16:07:05.816Z,34.00
2017-12-29T16:09:34.602Z,34.30
2017-12-29T16:12:03.365Z,34.40
2017-12-29T16:14:31.364Z,34.40
2017-12-29T16:17:00.110Z,34.40
2017-12-29T16:19:28.075Z,34.40
2017-12-29T16:21:56.886Z,34.40
2017-12-29T16:24:24.855Z,34.40
2017-12-29T16:26:52.891Z,34.40
2017-12-29T16:29:20.880Z,34.40
2017-12-29T16:31:48.901Z,34.40
2017-12-29T16:34:16.962Z,34.50
2017-12-29T16:36:45.734Z,34.50
2017-12-29T16:39:13.722Z,34.50
2017-12-29T16:41:42.483Z,34.60
2017-12-29T16:44:10.470Z,34.70
2017-12-29T16:46:39.552Z,34.70
2017-12-29T16:49:07.653Z,34.70
2017-12-29T16:51:35.670Z,34.70
2017-12-29T16:54:03.687Z,34.80
2017-12-29T16:56:32.489Z,35.00
2017-12-29T16:59:00.478Z,35.00
2017-12-29T17:01:28.479Z,35.10
2017-12-29T17:03:56.503Z,35.10
2017-12-29T17:06:24.509Z,35.20
2017-12-29T17:08:52.523Z,35.20
2017-12-29T17:11:21.274Z,35.40
2017-12-29T17:13:49.293Z,35.40
2017-12-29T17:16:17.339Z,35.40
2017-12-29T17:18:45.406Z,35.30
2017-12-29T17:21:13.481Z,35.40
2017-12-29T17:23:41.472Z,35.50
2017-12-29T17:26:10.265Z,35.80
2017-12-29T17:28:38.277Z,35.80
2017-12-29T17:31:06.321Z,35.80
2017-12-29T17:33:34.341Z,35.90
2017-12-29T17:36:02.372Z,36.00
2017-12-29T17:38:30.383Z,36.10
2017-12-29T17:40:58.385Z,36.20
2017-12-29T17:43:27.198Z,36.40
2017-12-29T17:45:55.246Z,36.40
2017-12-29T17:48:24.025Z,37.50
2017-12-29T17:50:52.786Z,37.60
2017-12-29T17:53:20.758Z,37.60
2017-12-29T17:55:48.785Z,37.70
2017-12-29T17:58:16.742Z,37.70
2017-12-29T18:00:44.781Z,37.80
2017-12-29T18:03:12.850Z,38.00
2017-12-29T18:05:40.837Z,38.10
2017-12-29T18:08:09.611Z,38.20
2017-12-29T18:10:37.607Z,38.30
2017-12-29T18:13:05.601Z,38.30
2017-12-29T18:15:33.631Z,38.30
2017-12-29T18:18:02.397Z,38.50
2017-12-29T18:20:30.389Z,38.50
2017-12-29T18:22:59.160Z,38.70
2017-12-29T18:25:27.149Z,38.70
2017-12-29T18:27:55.890Z,38.80
2017-12-29T18:30:23.909Z,38.80
2017-12-29T18:32:52.702Z,39.00
2017-12-29T18:35:20.711Z,39.00
2017-12-29T18:37:48.742Z,39.10
2017-12-29T18:40:17.477Z,39.10
2017-12-29T18:42:46.730Z,39.20
2017-12-29T18:45:15.481Z,39.40
2017-12-29T18:47:43.510Z,39.40
2017-12-29T18:50:11.753Z,39.40
2017-12-29T18:52:40.518Z,39.60
2017-12-29T18:55:08.667Z,39.60
2017-12-29T18:57:36.674Z,39.70
2017-12-29T19:00:05.485Z,39.60
2017-12-29T19:02:34.517Z,39.80
2017-12-29T19:05:02.519Z,39.80
2017-12-29T19:07:30.526Z,39.90
2017-12-29T19:09:58.670Z,40.00
2017-12-29T19:12:26.665Z,40.10
2017-12-29T19:14:55.474Z,40.30
2017-12-29T19:17:24.122Z,40.30
2017-12-29T19:19:52.118Z,40.40
2017-12-29T19:22:20.124Z,40.40
2017-12-29T19:24:48.111Z,40.60
2017-12-29T19:27:16.186Z,40.60
2017-12-29T19:29:44.164Z,40.70
2017-12-29T19:32:12.132Z,40.80
2017-12-29T19:34:41.027Z,40.80
2017-12-29T19:37:09.064Z,40.90
2017-12-29T19:39:37.051Z,41.00
2017-12-29T19:42:05.163Z,41.10
2017-12-29T19:44:33.957Z,41.20
2017-12-29T19:47:02.249Z,41.20
2017-12-29T19:49:31.529Z,41.20
2017-12-29T19:51:59.582Z,41.20
2017-12-29T19:54:27.590Z,41.20
2017-12-29T19:56:55.945Z,41.30
2017-12-29T19:59:24.698Z,41.40
2017-12-29T20:01:53.674Z,41.50
2017-12-29T20:04:22.670Z,42.10
2017-12-29T20:06:50.654Z,41.60
2017-12-29T20:09:18.647Z,41.60
2017-12-29T20:11:46.634Z,41.70
2017-12-29T20:14:14.634Z,41.70
2017-12-29T20:16:42.679Z,41.70
2017-12-29T20:19:10.702Z,41.80
2017-12-29T20:21:38.750Z,41.90
2017-12-29T20:24:06.732Z,42.00
2017-12-29T20:26:34.734Z,42.00
2017-12-29T20:29:02.807Z,42.10
2017-12-29T20:31:30.813Z,42.10
2017-12-29T20:33:58.791Z,42.20
2017-12-29T20:36:27.420Z,42.20
2017-12-29T20:38:55.409Z,42.30
2017-12-29T20:41:24.166Z,42.50
2017-12-29T20:43:52.151Z,42.50
2017-12-29T20:46:20.132Z,42.50
2017-12-29T20:48:48.953Z,42.70
2017-12-29T20:51:16.952Z,42.70
2017-12-29T20:53:44.895Z,42.70
2017-12-29T20:56:12.882Z,42.80
2017-12-29T20:58:40.845Z,42.90
2017-12-29T21:01:08.860Z,42.90
2017-12-29T21:03:36.829Z,43.00
2017-12-29T21:06:04.801Z,43.10
2017-12-29T21:08:32.804Z,43.10
2017-12-29T21:11:00.789Z,43.20
2017-12-29T21:13:28.798Z,43.30
2017-12-29T21:15:56.837Z,43.30
2017-12-29T21:18:24.851Z,43.40
2017-12-29T21:20:52.842Z,43.30
2017-12-29T21:23:23.565Z,43.50
2017-12-29T21:25:51.641Z,43.50
2017-12-29T21:28:20.380Z,43.50
2017-12-29T21:30:48.355Z,43.50
2017-12-29T21:33:16.322Z,43.50
2017-12-29T21:35:45.163Z,43.70
2017-12-29T21:38:13.934Z,43.70
2017-12-29T21:40:41.937Z,43.70
2017-12-29T21:43:09.925Z,43.70
2017-12-29T21:45:37.910Z,43.80
2017-12-29T21:48:05.885Z,43.80
2017-12-29T21:50:33.880Z,43.90
2017-12-29T21:53:01.867Z,43.80
2017-12-29T21:55:30.599Z,44.00
2017-12-29T21:57:58.592Z,44.00
2017-12-29T22:00:26.591Z,44.00
2017-12-29T22:02:55.349Z,44.20
2017-12-29T22:05:23.336Z,44.20
2017-12-29T22:07:51.343Z,44.20
2017-12-29T22:10:19.343Z,44.30
2017-12-29T22:12:47.366Z,44.30
2017-12-29T22:15:16.137Z,45.00
2017-12-29T22:17:44.141Z,44.50
2017-12-29T22:20:12.118Z,44.50
2017-12-29T22:22:40.117Z,44.50
2017-12-29T22:25:08.082Z,44.60
2017-12-29T22:27:36.099Z,44.60
2017-12-29T22:30:04.858Z,44.70
2017-12-29T22:32:32.869Z,44.60
2017-12-29T22:35:01.625Z,44.70
2017-12-29T22:37:29.626Z,44.80
2017-12-29T22:39:58.401Z,44.80
2017-12-29T22:42:27.165Z,44.90
2017-12-29T22:44:55.189Z,44.80
2017-12-29T22:47:23.188Z,44.80
2017-12-29T22:49:51.190Z,44.90
2017-12-29T22:52:19.203Z,44.90
2017-12-29T22:54:47.162Z,44.90
2017-12-29T22:57:15.152Z,44.90
2017-12-29T22:59:43.127Z,45.10
2017-12-29T23:02:11.122Z,45.10
2017-12-29T23:04:39.158Z,45.10
2017-12-29T23:07:07.145Z,45.00
2017-12-29T23:09:35.122Z,45.00
2017-12-29T23:12:03.142Z,45.10
2017-12-29T23:14:31.921Z,45.20
2017-12-29T23:17:00.655Z,45.20
2017-12-29T23:19:28.623Z,45.30
2017-12-29T23:21:56.653Z,45.20
2017-12-29T23:24:25.445Z,45.30
2017-12-29T23:26:54.245Z,45.30
2017-12-29T23:29:23.166Z,45.40
2017-12-29T23:31:51.156Z,45.40
2017-12-29T23:34:19.127Z,45.40
2017-12-29T23:36:47.129Z,45.40
2017-12-29T23:39:15.910Z,45.40
2017-12-29T23:41:44.737Z,45.40
2017-12-29T23:44:12.727Z,45.40
2017-12-29T23:46:40.718Z,45.40
2017-12-29T23:49:08.687Z,45.50
2017-12-29T23:51:36.646Z,45.40
2017-12-29T23:54:04.702Z,45.50
2017-12-29T23:56:32.628Z,45.60
2017-12-29T23:59:01.371Z,45.70
